sensor_id;sensor_type;location;lat;lon;timestamp;P1;durP1;ratioP1;P2;durP2;ratioP2
17422;SDS011;8829;47.932;7.810;2022-10-26T00:02:03;1.63;;;0.67;;
17422;SDS011;8829;47.932;7.810;2022-10-26T00:04:30;1.23;;;1.00;;
17422;SDS011;8829;47.932;7.810;2022-10-26T00:06:56;4.93;;;0.87;;
17422;SDS011;8829;47.932;7.810;2022-10-26T00:09:23;1.63;;;0.67;;
17422;SDS011;8829;47.932;7.810;2022-10-26T00:11:51;2.03;;;0.70;;
17422;SDS011;8829;47.932;7.810;2022-10-26T00:14:17;1.53;;;0.60;;
17422;SDS011;8829;47.932;7.810;2022-10-26T00:16:44;5.63;;;0.73;;
17422;SDS011;8829;47.932;7.810;2022-10-26T00:19:12;6.43;;;1.03;;
17422;SDS011;8829;47.932;7.810;2022-10-26T00:21:39;2.77;;;0.90;;
17422;SDS011;8829;47.932;7.810;2022-10-26T00:24:06;3.50;;;0.70;;
17422;SDS011;8829;47.932;7.810;2022-10-26T00:26:32;2.27;;;0.63;;
17422;SDS011;8829;47.932;7.810;2022-10-26T00:28:59;1.13;;;0.53;;
17422;SDS011;8829;47.932;7.810;2022-10-26T00:31:26;1.33;;;0.50;;
17422;SDS011;8829;47.932;7.810;2022-10-26T00:33:53;1.53;;;0.70;;
17422;SDS011;8829;47.932;7.810;2022-10-26T00:36:22;1.37;;;0.70;;
17422;SDS011;8829;47.932;7.810;2022-10-26T00:38:50;0.60;;;0.60;;
17422;SDS011;8829;47.932;7.810;2022-10-26T00:41:19;6.70;;;0.80;;
17422;SDS011;8829;47.932;7.810;2022-10-26T00:43:47;2.30;;;0.90;;
17422;SDS011;8829;47.932;7.810;2022-10-26T00:46:15;1.13;;;0.60;;
17422;SDS011;8829;47.932;7.810;2022-10-26T00:48:46;2.83;;;0.70;;
17422;SDS011;8829;47.932;7.810;2022-10-26T00:51:18;0.63;;;0.53;;
17422;SDS011;8829;47.932;7.810;2022-10-26T00:53:50;4.67;;;0.70;;
17422;SDS011;8829;47.932;7.810;2022-10-26T00:56:18;0.50;;;0.50;;
17422;SDS011;8829;47.932;7.810;2022-10-26T00:58:45;8.77;;;1.00;;
17422;SDS011;8829;47.932;7.810;2022-10-26T01:01:12;1.00;;;0.90;;
17422;SDS011;8829;47.932;7.810;2022-10-26T01:03:39;2.13;;;1.20;;
17422;SDS011;8829;47.932;7.810;2022-10-26T01:06:07;2.63;;;0.90;;
17422;SDS011;8829;47.932;7.810;2022-10-26T01:08:37;2.37;;;0.90;;
17422;SDS011;8829;47.932;7.810;2022-10-26T01:11:05;1.87;;;0.67;;
17422;SDS011;8829;47.932;7.810;2022-10-26T01:13:32;1.20;;;0.60;;
17422;SDS011;8829;47.932;7.810;2022-10-26T01:16:03;1.13;;;0.80;;
17422;SDS011;8829;47.932;7.810;2022-10-26T01:18:44;5.80;;;0.80;;
17422;SDS011;8829;47.932;7.810;2022-10-26T01:21:26;2.17;;;0.63;;
17422;SDS011;8829;47.932;7.810;2022-10-26T01:24:17;6.63;;;1.03;;
17422;SDS011;8829;47.932;7.810;2022-10-26T01:27:17;0.60;;;0.60;;
17422;SDS011;8829;47.932;7.810;2022-10-26T01:29:51;2.43;;;0.73;;
17422;SDS011;8829;47.932;7.810;2022-10-26T01:32:30;2.50;;;0.93;;
17422;SDS011;8829;47.932;7.810;2022-10-26T01:35:01;0.90;;;0.70;;
17422;SDS011;8829;47.932;7.810;2022-10-26T01:37:35;3.17;;;0.90;;
17422;SDS011;8829;47.932;7.810;2022-10-26T01:40:08;2.53;;;0.83;;
17422;SDS011;8829;47.932;7.810;2022-10-26T01:42:41;1.43;;;0.97;;
17422;SDS011;8829;47.932;7.810;2022-10-26T01:45:11;3.23;;;0.90;;
17422;SDS011;8829;47.932;7.810;2022-10-26T01:47:42;1.53;;;0.70;;
17422;SDS011;8829;47.932;7.810;2022-10-26T01:50:10;3.90;;;0.90;;
17422;SDS011;8829;47.932;7.810;2022-10-26T01:52:37;5.10;;;1.00;;
17422;SDS011;8829;47.932;7.810;2022-10-26T01:55:05;1.27;;;1.10;;
17422;SDS011;8829;47.932;7.810;2022-10-26T01:57:53;1.80;;;0.70;;
17422;SDS011;8829;47.932;7.810;2022-10-26T02:00:29;2.07;;;0.90;;
17422;SDS011;8829;47.932;7.810;2022-10-26T02:03:01;0.93;;;0.93;;
17422;SDS011;8829;47.932;7.810;2022-10-26T02:05:44;1.93;;;0.97;;
17422;SDS011;8829;47.932;7.810;2022-10-26T02:08:36;1.27;;;0.90;;
17422;SDS011;8829;47.932;7.810;2022-10-26T02:11:19;1.17;;;0.90;;
17422;SDS011;8829;47.932;7.810;2022-10-26T02:13:57;1.17;;;1.00;;
17422;SDS011;8829;47.932;7.810;2022-10-26T02:16:35;5.47;;;0.90;;
17422;SDS011;8829;47.932;7.810;2022-10-26T02:19:09;0.80;;;0.80;;
17422;SDS011;8829;47.932;7.810;2022-10-26T02:21:45;2.47;;;0.93;;
17422;SDS011;8829;47.932;7.810;2022-10-26T02:24:15;5.90;;;1.17;;
17422;SDS011;8829;47.932;7.810;2022-10-26T02:26:43;1.03;;;0.90;;
17422;SDS011;8829;47.932;7.810;2022-10-26T02:29:12;2.33;;;1.37;;
17422;SDS011;8829;47.932;7.810;2022-10-26T02:31:43;4.50;;;1.10;;
17422;SDS011;8829;47.932;7.810;2022-10-26T02:34:13;3.23;;;1.47;;
17422;SDS011;8829;47.932;7.810;2022-10-26T02:36:43;5.57;;;1.03;;
17422;SDS011;8829;47.932;7.810;2022-10-26T02:39:15;4.60;;;1.20;;
17422;SDS011;8829;47.932;7.810;2022-10-26T02:41:43;6.83;;;1.13;;
17422;SDS011;8829;47.932;7.810;2022-10-26T02:44:13;1.20;;;1.10;;
17422;SDS011;8829;47.932;7.810;2022-10-26T02:46:46;3.17;;;1.20;;
17422;SDS011;8829;47.932;7.810;2022-10-26T02:49:14;4.40;;;1.60;;
17422;SDS011;8829;47.932;7.810;2022-10-26T02:51:43;2.73;;;1.40;;
17422;SDS011;8829;47.932;7.810;2022-10-26T02:54:14;3.00;;;1.50;;
17422;SDS011;8829;47.932;7.810;2022-10-26T02:56:47;4.77;;;1.13;;
17422;SDS011;8829;47.932;7.810;2022-10-26T02:59:19;2.97;;;1.20;;
17422;SDS011;8829;47.932;7.810;2022-10-26T03:01:48;1.77;;;1.33;;
17422;SDS011;8829;47.932;7.810;2022-10-26T03:04:18;2.60;;;1.23;;
17422;SDS011;8829;47.932;7.810;2022-10-26T03:06:50;2.90;;;0.97;;
17422;SDS011;8829;47.932;7.810;2022-10-26T03:09:17;3.73;;;1.27;;
17422;SDS011;8829;47.932;7.810;2022-10-26T03:11:44;2.20;;;0.90;;
17422;SDS011;8829;47.932;7.810;2022-10-26T03:14:10;4.43;;;1.37;;
17422;SDS011;8829;47.932;7.810;2022-10-26T03:16:37;2.43;;;1.30;;
17422;SDS011;8829;47.932;7.810;2022-10-26T03:19:04;2.83;;;1.27;;
17422;SDS011;8829;47.932;7.810;2022-10-26T03:21:32;2.33;;;1.20;;
17422;SDS011;8829;47.932;7.810;2022-10-26T03:23:59;7.20;;;1.50;;
17422;SDS011;8829;47.932;7.810;2022-10-26T03:26:26;4.67;;;1.57;;
17422;SDS011;8829;47.932;7.810;2022-10-26T03:28:52;7.23;;;1.60;;
17422;SDS011;8829;47.932;7.810;2022-10-26T03:31:19;4.30;;;1.47;;
17422;SDS011;8829;47.932;7.810;2022-10-26T03:33:46;3.53;;;1.30;;
17422;SDS011;8829;47.932;7.810;2022-10-26T03:36:13;6.27;;;1.63;;
17422;SDS011;8829;47.932;7.810;2022-10-26T03:38:41;9.30;;;2.33;;
17422;SDS011;8829;47.932;7.810;2022-10-26T03:41:07;2.97;;;1.93;;
17422;SDS011;8829;47.932;7.810;2022-10-26T03:43:34;7.63;;;2.03;;
17422;SDS011;8829;47.932;7.810;2022-10-26T03:46:01;6.83;;;1.97;;
17422;SDS011;8829;47.932;7.810;2022-10-26T03:48:28;3.77;;;1.70;;
17422;SDS011;8829;47.932;7.810;2022-10-26T03:50:56;3.10;;;1.73;;
17422;SDS011;8829;47.932;7.810;2022-10-26T03:53:23;6.07;;;1.70;;
17422;SDS011;8829;47.932;7.810;2022-10-26T03:55:51;6.13;;;1.70;;
17422;SDS011;8829;47.932;7.810;2022-10-26T03:58:18;5.43;;;1.80;;
17422;SDS011;8829;47.932;7.810;2022-10-26T04:00:45;8.13;;;2.33;;
17422;SDS011;8829;47.932;7.810;2022-10-26T04:03:12;8.17;;;1.63;;
17422;SDS011;8829;47.932;7.810;2022-10-26T04:05:39;11.47;;;2.10;;
17422;SDS011;8829;47.932;7.810;2022-10-26T04:08:05;6.50;;;2.00;;
17422;SDS011;8829;47.932;7.810;2022-10-26T04:10:33;3.27;;;1.50;;
17422;SDS011;8829;47.932;7.810;2022-10-26T04:13:01;5.50;;;2.17;;
17422;SDS011;8829;47.932;7.810;2022-10-26T04:15:28;6.93;;;2.30;;
17422;SDS011;8829;47.932;7.810;2022-10-26T04:17:55;6.07;;;1.87;;
17422;SDS011;8829;47.932;7.810;2022-10-26T04:20:23;7.00;;;1.77;;
17422;SDS011;8829;47.932;7.810;2022-10-26T04:22:55;8.07;;;1.60;;
17422;SDS011;8829;47.932;7.810;2022-10-26T04:25:23;6.33;;;1.77;;
17422;SDS011;8829;47.932;7.810;2022-10-26T04:27:50;4.80;;;1.83;;
17422;SDS011;8829;47.932;7.810;2022-10-26T04:30:18;5.03;;;1.90;;
17422;SDS011;8829;47.932;7.810;2022-10-26T04:32:45;6.00;;;2.17;;
17422;SDS011;8829;47.932;7.810;2022-10-26T04:35:11;6.03;;;1.90;;
17422;SDS011;8829;47.932;7.810;2022-10-26T04:37:38;6.50;;;1.97;;
17422;SDS011;8829;47.932;7.810;2022-10-26T04:40:05;8.57;;;2.43;;
17422;SDS011;8829;47.932;7.810;2022-10-26T04:42:38;8.43;;;2.43;;
17422;SDS011;8829;47.932;7.810;2022-10-26T04:45:06;7.03;;;1.93;;
17422;SDS011;8829;47.932;7.810;2022-10-26T04:47:35;3.33;;;1.97;;
17422;SDS011;8829;47.932;7.810;2022-10-26T04:50:02;5.47;;;1.73;;
17422;SDS011;8829;47.932;7.810;2022-10-26T04:52:30;5.07;;;1.87;;
17422;SDS011;8829;47.932;7.810;2022-10-26T04:54:57;4.57;;;1.57;;
17422;SDS011;8829;47.932;7.810;2022-10-26T04:57:24;4.50;;;1.87;;
17422;SDS011;8829;47.932;7.810;2022-10-26T04:59:51;5.73;;;1.90;;
17422;SDS011;8829;47.932;7.810;2022-10-26T05:02:17;5.70;;;1.73;;
17422;SDS011;8829;47.932;7.810;2022-10-26T05:04:47;6.10;;;1.90;;
17422;SDS011;8829;47.932;7.810;2022-10-26T05:07:13;4.20;;;1.43;;
17422;SDS011;8829;47.932;7.810;2022-10-26T05:09:40;8.33;;;2.00;;
17422;SDS011;8829;47.932;7.810;2022-10-26T05:12:07;7.37;;;1.77;;
17422;SDS011;8829;47.932;7.810;2022-10-26T05:14:33;10.57;;;2.10;;
17422;SDS011;8829;47.932;7.810;2022-10-26T05:17:00;4.13;;;1.83;;
17422;SDS011;8829;47.932;7.810;2022-10-26T05:19:27;4.73;;;2.10;;
17422;SDS011;8829;47.932;7.810;2022-10-26T05:21:55;3.23;;;1.50;;
17422;SDS011;8829;47.932;7.810;2022-10-26T05:24:22;5.93;;;2.10;;
17422;SDS011;8829;47.932;7.810;2022-10-26T05:26:48;8.20;;;2.30;;
17422;SDS011;8829;47.932;7.810;2022-10-26T05:29:15;3.80;;;1.50;;
17422;SDS011;8829;47.932;7.810;2022-10-26T05:31:42;4.37;;;1.53;;
17422;SDS011;8829;47.932;7.810;2022-10-26T05:34:08;4.40;;;1.87;;
17422;SDS011;8829;47.932;7.810;2022-10-26T05:36:35;7.53;;;2.03;;
17422;SDS011;8829;47.932;7.810;2022-10-26T05:39:04;6.20;;;1.93;;
17422;SDS011;8829;47.932;7.810;2022-10-26T05:41:30;8.20;;;1.70;;
17422;SDS011;8829;47.932;7.810;2022-10-26T05:43:57;4.37;;;1.63;;
17422;SDS011;8829;47.932;7.810;2022-10-26T05:46:24;2.63;;;1.60;;
17422;SDS011;8829;47.932;7.810;2022-10-26T05:48:50;6.93;;;1.80;;
17422;SDS011;8829;47.932;7.810;2022-10-26T05:51:17;4.40;;;1.87;;
17422;SDS011;8829;47.932;7.810;2022-10-26T05:53:44;5.80;;;2.00;;
17422;SDS011;8829;47.932;7.810;2022-10-26T05:56:14;3.77;;;1.77;;
17422;SDS011;8829;47.932;7.810;2022-10-26T05:58:45;6.77;;;1.90;;
17422;SDS011;8829;47.932;7.810;2022-10-26T06:01:12;7.40;;;1.70;;
17422;SDS011;8829;47.932;7.810;2022-10-26T06:03:58;4.67;;;1.77;;
17422;SDS011;8829;47.932;7.810;2022-10-26T06:06:36;6.57;;;1.93;;
17422;SDS011;8829;47.932;7.810;2022-10-26T06:09:08;3.73;;;1.50;;
17422;SDS011;8829;47.932;7.810;2022-10-26T06:11:42;4.73;;;1.50;;
17422;SDS011;8829;47.932;7.810;2022-10-26T06:14:09;3.50;;;1.67;;
17422;SDS011;8829;47.932;7.810;2022-10-26T06:16:38;7.17;;;1.67;;
17422;SDS011;8829;47.932;7.810;2022-10-26T06:19:17;7.17;;;1.83;;
17422;SDS011;8829;47.932;7.810;2022-10-26T06:21:53;3.93;;;1.53;;
17422;SDS011;8829;47.932;7.810;2022-10-26T06:24:39;7.23;;;1.70;;
17422;SDS011;8829;47.932;7.810;2022-10-26T06:27:18;8.83;;;1.83;;
17422;SDS011;8829;47.932;7.810;2022-10-26T06:29:54;8.57;;;1.70;;
17422;SDS011;8829;47.932;7.810;2022-10-26T06:32:24;4.53;;;1.73;;
17422;SDS011;8829;47.932;7.810;2022-10-26T06:34:52;4.20;;;2.13;;
17422;SDS011;8829;47.932;7.810;2022-10-26T06:37:25;7.20;;;2.13;;
17422;SDS011;8829;47.932;7.810;2022-10-26T06:39:53;7.83;;;1.90;;
17422;SDS011;8829;47.932;7.810;2022-10-26T06:42:23;7.07;;;2.30;;
17422;SDS011;8829;47.932;7.810;2022-10-26T06:44:51;5.90;;;2.47;;
17422;SDS011;8829;47.932;7.810;2022-10-26T06:47:19;3.80;;;1.83;;
17422;SDS011;8829;47.932;7.810;2022-10-26T06:49:54;9.90;;;2.13;;
17422;SDS011;8829;47.932;7.810;2022-10-26T06:52:28;6.13;;;2.10;;
17422;SDS011;8829;47.932;7.810;2022-10-26T06:55:00;4.23;;;1.70;;
17422;SDS011;8829;47.932;7.810;2022-10-26T06:57:32;5.30;;;1.73;;
17422;SDS011;8829;47.932;7.810;2022-10-26T07:00:03;8.47;;;1.90;;
17422;SDS011;8829;47.932;7.810;2022-10-26T07:02:32;5.33;;;2.20;;
17422;SDS011;8829;47.932;7.810;2022-10-26T07:04:59;17.90;;;3.40;;
17422;SDS011;8829;47.932;7.810;2022-10-26T07:07:26;8.67;;;2.50;;
17422;SDS011;8829;47.932;7.810;2022-10-26T07:09:55;5.03;;;1.57;;
17422;SDS011;8829;47.932;7.810;2022-10-26T07:12:22;7.07;;;3.17;;
17422;SDS011;8829;47.932;7.810;2022-10-26T07:14:50;12.23;;;3.87;;
17422;SDS011;8829;47.932;7.810;2022-10-26T07:17:17;5.43;;;2.27;;
17422;SDS011;8829;47.932;7.810;2022-10-26T07:19:43;17.13;;;9.87;;
17422;SDS011;8829;47.932;7.810;2022-10-26T07:22:10;5.80;;;2.37;;
17422;SDS011;8829;47.932;7.810;2022-10-26T07:24:38;7.73;;;2.07;;
17422;SDS011;8829;47.932;7.810;2022-10-26T07:27:05;5.43;;;1.93;;
17422;SDS011;8829;47.932;7.810;2022-10-26T07:29:31;9.70;;;2.00;;
17422;SDS011;8829;47.932;7.810;2022-10-26T07:32:00;7.90;;;2.27;;
17422;SDS011;8829;47.932;7.810;2022-10-26T07:34:27;5.53;;;1.70;;
17422;SDS011;8829;47.932;7.810;2022-10-26T07:36:54;5.50;;;1.63;;
17422;SDS011;8829;47.932;7.810;2022-10-26T07:39:21;13.90;;;2.37;;
17422;SDS011;8829;47.932;7.810;2022-10-26T07:41:47;7.00;;;2.00;;
17422;SDS011;8829;47.932;7.810;2022-10-26T07:44:14;7.53;;;2.20;;
17422;SDS011;8829;47.932;7.810;2022-10-26T07:46:41;4.73;;;2.10;;
17422;SDS011;8829;47.932;7.810;2022-10-26T07:49:09;7.67;;;2.27;;
17422;SDS011;8829;47.932;7.810;2022-10-26T07:51:36;8.10;;;1.77;;
17422;SDS011;8829;47.932;7.810;2022-10-26T07:54:03;6.43;;;1.53;;
17422;SDS011;8829;47.932;7.810;2022-10-26T07:56:29;3.77;;;1.70;;
17422;SDS011;8829;47.932;7.810;2022-10-26T07:58:56;6.20;;;2.03;;
17422;SDS011;8829;47.932;7.810;2022-10-26T08:01:23;7.30;;;1.90;;
17422;SDS011;8829;47.932;7.810;2022-10-26T08:03:50;8.10;;;2.17;;
17422;SDS011;8829;47.932;7.810;2022-10-26T08:06:19;7.70;;;2.33;;
17422;SDS011;8829;47.932;7.810;2022-10-26T08:08:46;10.07;;;2.50;;
17422;SDS011;8829;47.932;7.810;2022-10-26T08:11:13;10.97;;;2.43;;
17422;SDS011;8829;47.932;7.810;2022-10-26T08:13:40;3.37;;;1.90;;
17422;SDS011;8829;47.932;7.810;2022-10-26T08:16:06;5.87;;;1.90;;
17422;SDS011;8829;47.932;7.810;2022-10-26T08:18:34;8.37;;;2.43;;
17422;SDS011;8829;47.932;7.810;2022-10-26T08:21:01;6.67;;;2.33;;
17422;SDS011;8829;47.932;7.810;2022-10-26T08:23:30;8.07;;;2.13;;
17422;SDS011;8829;47.932;7.810;2022-10-26T08:25:58;8.33;;;2.23;;
17422;SDS011;8829;47.932;7.810;2022-10-26T08:28:25;17.77;;;3.33;;
17422;SDS011;8829;47.932;7.810;2022-10-26T08:30:52;10.87;;;2.43;;
17422;SDS011;8829;47.932;7.810;2022-10-26T08:33:19;6.27;;;3.60;;
17422;SDS011;8829;47.932;7.810;2022-10-26T08:35:46;11.93;;;2.90;;
17422;SDS011;8829;47.932;7.810;2022-10-26T08:38:13;13.63;;;2.67;;
17422;SDS011;8829;47.932;7.810;2022-10-26T08:40:41;9.60;;;3.37;;
17422;SDS011;8829;47.932;7.810;2022-10-26T08:43:10;7.70;;;2.47;;
17422;SDS011;8829;47.932;7.810;2022-10-26T08:45:43;11.83;;;2.97;;
17422;SDS011;8829;47.932;7.810;2022-10-26T08:48:15;13.10;;;2.87;;
17422;SDS011;8829;47.932;7.810;2022-10-26T08:50:46;11.80;;;2.50;;
17422;SDS011;8829;47.932;7.810;2022-10-26T08:53:17;8.60;;;2.63;;
17422;SDS011;8829;47.932;7.810;2022-10-26T08:55:51;11.37;;;2.77;;
17422;SDS011;8829;47.932;7.810;2022-10-26T08:58:22;12.23;;;2.63;;
17422;SDS011;8829;47.932;7.810;2022-10-26T09:00:52;9.73;;;3.20;;
17422;SDS011;8829;47.932;7.810;2022-10-26T09:03:19;14.10;;;2.87;;
17422;SDS011;8829;47.932;7.810;2022-10-26T09:05:48;7.57;;;2.93;;
17422;SDS011;8829;47.932;7.810;2022-10-26T09:08:39;7.07;;;2.30;;
17422;SDS011;8829;47.932;7.810;2022-10-26T09:11:19;9.17;;;2.30;;
17422;SDS011;8829;47.932;7.810;2022-10-26T09:13:57;7.67;;;2.50;;
17422;SDS011;8829;47.932;7.810;2022-10-26T09:16:30;9.10;;;2.20;;
17422;SDS011;8829;47.932;7.810;2022-10-26T09:19:07;11.17;;;2.53;;
17422;SDS011;8829;47.932;7.810;2022-10-26T09:21:49;9.37;;;2.43;;
17422;SDS011;8829;47.932;7.810;2022-10-26T09:24:28;8.33;;;2.37;;
17422;SDS011;8829;47.932;7.810;2022-10-26T09:26:59;10.97;;;3.13;;
17422;SDS011;8829;47.932;7.810;2022-10-26T09:29:33;11.70;;;2.60;;
17422;SDS011;8829;47.932;7.810;2022-10-26T09:32:04;5.63;;;1.90;;
17422;SDS011;8829;47.932;7.810;2022-10-26T09:34:36;6.53;;;1.90;;
17422;SDS011;8829;47.932;7.810;2022-10-26T09:37:10;5.90;;;1.70;;
17422;SDS011;8829;47.932;7.810;2022-10-26T09:39:42;10.77;;;2.40;;
17422;SDS011;8829;47.932;7.810;2022-10-26T09:42:19;7.40;;;2.00;;
17422;SDS011;8829;47.932;7.810;2022-10-26T09:44:53;6.73;;;2.60;;
17422;SDS011;8829;47.932;7.810;2022-10-26T09:47:26;5.37;;;2.40;;
17422;SDS011;8829;47.932;7.810;2022-10-26T09:49:57;6.00;;;1.90;;
17422;SDS011;8829;47.932;7.810;2022-10-26T09:52:30;8.37;;;2.30;;
17422;SDS011;8829;47.932;7.810;2022-10-26T09:54:57;12.57;;;1.80;;
17422;SDS011;8829;47.932;7.810;2022-10-26T09:57:25;13.13;;;2.10;;
17422;SDS011;8829;47.932;7.810;2022-10-26T09:59:52;7.97;;;2.13;;
17422;SDS011;8829;47.932;7.810;2022-10-26T10:02:32;13.77;;;2.97;;
17422;SDS011;8829;47.932;7.810;2022-10-26T10:05:00;10.07;;;2.37;;
17422;SDS011;8829;47.932;7.810;2022-10-26T10:07:27;9.10;;;2.23;;
17422;SDS011;8829;47.932;7.810;2022-10-26T10:12:44;10.60;;;2.97;;
17422;SDS011;8829;47.932;7.810;2022-10-26T10:15:18;5.17;;;2.20;;
17422;SDS011;8829;47.932;7.810;2022-10-26T10:17:47;8.93;;;2.70;;
17422;SDS011;8829;47.932;7.810;2022-10-26T10:20:18;11.70;;;2.47;;
17422;SDS011;8829;47.932;7.810;2022-10-26T10:22:53;8.67;;;2.53;;
17422;SDS011;8829;47.932;7.810;2022-10-26T10:25:22;7.13;;;2.43;;
17422;SDS011;8829;47.932;7.810;2022-10-26T10:27:58;9.40;;;2.63;;
17422;SDS011;8829;47.932;7.810;2022-10-26T10:30:27;8.10;;;2.73;;
17422;SDS011;8829;47.932;7.810;2022-10-26T10:33:05;9.00;;;2.80;;
17422;SDS011;8829;47.932;7.810;2022-10-26T10:35:33;12.00;;;3.20;;
17422;SDS011;8829;47.932;7.810;2022-10-26T10:37:59;15.87;;;2.67;;
17422;SDS011;8829;47.932;7.810;2022-10-26T10:40:27;7.80;;;2.50;;
17422;SDS011;8829;47.932;7.810;2022-10-26T10:43:03;10.57;;;2.90;;
17422;SDS011;8829;47.932;7.810;2022-10-26T10:45:32;10.07;;;2.90;;
17422;SDS011;8829;47.932;7.810;2022-10-26T10:48:00;11.27;;;3.07;;
17422;SDS011;8829;47.932;7.810;2022-10-26T10:50:29;12.03;;;3.17;;
17422;SDS011;8829;47.932;7.810;2022-10-26T10:56:00;12.07;;;3.10;;
17422;SDS011;8829;47.932;7.810;2022-10-26T10:58:36;15.53;;;2.90;;
17422;SDS011;8829;47.932;7.810;2022-10-26T11:01:12;10.97;;;3.07;;
17422;SDS011;8829;47.932;7.810;2022-10-26T11:03:43;10.37;;;3.07;;
17422;SDS011;8829;47.932;7.810;2022-10-26T11:06:22;5.53;;;2.27;;
17422;SDS011;8829;47.932;7.810;2022-10-26T11:08:53;11.50;;;2.73;;
17422;SDS011;8829;47.932;7.810;2022-10-26T11:11:26;9.53;;;2.83;;
17422;SDS011;8829;47.932;7.810;2022-10-26T11:14:00;9.93;;;2.97;;
17422;SDS011;8829;47.932;7.810;2022-10-26T11:16:32;9.90;;;3.00;;
17422;SDS011;8829;47.932;7.810;2022-10-26T11:19:03;11.07;;;2.60;;
17422;SDS011;8829;47.932;7.810;2022-10-26T11:21:38;9.50;;;3.03;;
17422;SDS011;8829;47.932;7.810;2022-10-26T11:24:09;11.10;;;3.90;;
17422;SDS011;8829;47.932;7.810;2022-10-26T11:26:43;9.53;;;3.03;;
17422;SDS011;8829;47.932;7.810;2022-10-26T11:29:22;8.90;;;2.97;;
17422;SDS011;8829;47.932;7.810;2022-10-26T11:31:56;7.97;;;2.67;;
17422;SDS011;8829;47.932;7.810;2022-10-26T11:34:28;8.03;;;2.60;;
17422;SDS011;8829;47.932;7.810;2022-10-26T11:37:02;8.70;;;2.27;;
17422;SDS011;8829;47.932;7.810;2022-10-26T11:39:36;7.53;;;2.60;;
17422;SDS011;8829;47.932;7.810;2022-10-26T11:42:10;13.43;;;2.93;;
17422;SDS011;8829;47.932;7.810;2022-10-26T11:44:52;6.03;;;2.37;;
17422;SDS011;8829;47.932;7.810;2022-10-26T11:47:27;11.77;;;2.80;;
17422;SDS011;8829;47.932;7.810;2022-10-26T11:50:02;8.70;;;2.40;;
17422;SDS011;8829;47.932;7.810;2022-10-26T11:52:33;12.23;;;2.80;;
17422;SDS011;8829;47.932;7.810;2022-10-26T11:55:06;8.13;;;2.33;;
17422;SDS011;8829;47.932;7.810;2022-10-26T11:57:36;9.10;;;2.20;;
17422;SDS011;8829;47.932;7.810;2022-10-26T12:00:05;10.60;;;2.47;;
17422;SDS011;8829;47.932;7.810;2022-10-26T12:02:36;12.97;;;2.57;;
17422;SDS011;8829;47.932;7.810;2022-10-26T12:05:07;12.27;;;5.90;;
17422;SDS011;8829;47.932;7.810;2022-10-26T12:07:45;10.33;;;3.73;;
17422;SDS011;8829;47.932;7.810;2022-10-26T12:10:19;8.77;;;2.73;;
17422;SDS011;8829;47.932;7.810;2022-10-26T12:12:50;7.03;;;2.20;;
17422;SDS011;8829;47.932;7.810;2022-10-26T12:15:25;14.10;;;2.47;;
17422;SDS011;8829;47.932;7.810;2022-10-26T12:17:59;3.80;;;2.13;;
17422;SDS011;8829;47.932;7.810;2022-10-26T12:20:46;10.63;;;2.60;;
17422;SDS011;8829;47.932;7.810;2022-10-26T12:23:18;11.33;;;2.70;;
17422;SDS011;8829;47.932;7.810;2022-10-26T12:25:46;10.87;;;2.57;;
17422;SDS011;8829;47.932;7.810;2022-10-26T12:34:06;10.07;;;2.30;;
17422;SDS011;8829;47.932;7.810;2022-10-26T12:36:46;20.67;;;2.50;;
17422;SDS011;8829;47.932;7.810;2022-10-26T12:39:26;7.90;;;2.33;;
17422;SDS011;8829;47.932;7.810;2022-10-26T12:41:55;7.20;;;2.13;;
17422;SDS011;8829;47.932;7.810;2022-10-26T12:44:33;6.87;;;2.50;;
17422;SDS011;8829;47.932;7.810;2022-10-26T12:47:02;12.30;;;2.80;;
17422;SDS011;8829;47.932;7.810;2022-10-26T12:52:38;6.53;;;3.10;;
17422;SDS011;8829;47.932;7.810;2022-10-26T13:01:23;9.87;;;2.73;;
17422;SDS011;8829;47.932;7.810;2022-10-26T13:07:18;8.90;;;2.53;;
17422;SDS011;8829;47.932;7.810;2022-10-26T13:09:53;7.70;;;2.37;;
17422;SDS011;8829;47.932;7.810;2022-10-26T13:12:23;7.03;;;2.50;;
17422;SDS011;8829;47.932;7.810;2022-10-26T13:14:56;8.87;;;2.63;;
17422;SDS011;8829;47.932;7.810;2022-10-26T13:17:27;6.20;;;3.23;;
17422;SDS011;8829;47.932;7.810;2022-10-26T13:19:56;10.37;;;3.27;;
17422;SDS011;8829;47.932;7.810;2022-10-26T13:22:26;12.63;;;2.70;;
17422;SDS011;8829;47.932;7.810;2022-10-26T13:24:54;6.90;;;2.40;;
17422;SDS011;8829;47.932;7.810;2022-10-26T13:27:41;8.43;;;2.37;;
17422;SDS011;8829;47.932;7.810;2022-10-26T13:30:19;16.03;;;2.83;;
17422;SDS011;8829;47.932;7.810;2022-10-26T13:33:01;11.47;;;2.63;;
17422;SDS011;8829;47.932;7.810;2022-10-26T13:35:28;5.20;;;2.50;;
17422;SDS011;8829;47.932;7.810;2022-10-26T13:38:08;7.83;;;2.77;;
17422;SDS011;8829;47.932;7.810;2022-10-26T13:40:36;6.60;;;2.03;;
17422;SDS011;8829;47.932;7.810;2022-10-26T13:43:05;7.43;;;2.33;;
17422;SDS011;8829;47.932;7.810;2022-10-26T13:45:38;7.87;;;2.30;;
17422;SDS011;8829;47.932;7.810;2022-10-26T13:48:14;11.30;;;2.53;;
17422;SDS011;8829;47.932;7.810;2022-10-26T13:50:45;6.70;;;2.30;;
17422;SDS011;8829;47.932;7.810;2022-10-26T13:53:17;6.47;;;2.30;;
17422;SDS011;8829;47.932;7.810;2022-10-26T13:55:49;6.07;;;2.30;;
17422;SDS011;8829;47.932;7.810;2022-10-26T13:58:20;10.40;;;2.80;;
17422;SDS011;8829;47.932;7.810;2022-10-26T14:01:01;6.30;;;2.20;;
17422;SDS011;8829;47.932;7.810;2022-10-26T14:03:30;6.70;;;2.60;;
17422;SDS011;8829;47.932;7.810;2022-10-26T14:05:56;14.13;;;2.63;;
17422;SDS011;8829;47.932;7.810;2022-10-26T14:08:25;8.73;;;2.60;;
17422;SDS011;8829;47.932;7.810;2022-10-26T14:10:52;11.53;;;2.70;;
17422;SDS011;8829;47.932;7.810;2022-10-26T14:13:22;10.57;;;2.43;;
17422;SDS011;8829;47.932;7.810;2022-10-26T14:15:50;8.43;;;2.17;;
17422;SDS011;8829;47.932;7.810;2022-10-26T14:18:20;7.57;;;2.40;;
17422;SDS011;8829;47.932;7.810;2022-10-26T14:20:53;9.60;;;1.90;;
17422;SDS011;8829;47.932;7.810;2022-10-26T14:23:32;5.43;;;2.30;;
17422;SDS011;8829;47.932;7.810;2022-10-26T14:26:00;10.80;;;2.20;;
17422;SDS011;8829;47.932;7.810;2022-10-26T14:28:28;7.80;;;2.00;;
17422;SDS011;8829;47.932;7.810;2022-10-26T14:31:09;5.03;;;2.10;;
17422;SDS011;8829;47.932;7.810;2022-10-26T14:33:37;10.03;;;2.40;;
17422;SDS011;8829;47.932;7.810;2022-10-26T14:36:04;11.07;;;3.13;;
17422;SDS011;8829;47.932;7.810;2022-10-26T14:38:35;11.77;;;3.97;;
17422;SDS011;8829;47.932;7.810;2022-10-26T14:41:08;14.20;;;4.80;;
17422;SDS011;8829;47.932;7.810;2022-10-26T14:43:36;9.57;;;2.33;;
17422;SDS011;8829;47.932;7.810;2022-10-26T14:46:03;6.57;;;2.70;;
17422;SDS011;8829;47.932;7.810;2022-10-26T14:48:30;9.40;;;2.50;;
17422;SDS011;8829;47.932;7.810;2022-10-26T14:50:59;7.23;;;2.50;;
17422;SDS011;8829;47.932;7.810;2022-10-26T14:53:29;11.17;;;2.73;;
17422;SDS011;8829;47.932;7.810;2022-10-26T14:56:01;7.60;;;2.37;;
17422;SDS011;8829;47.932;7.810;2022-10-26T14:58:29;4.47;;;1.53;;
17422;SDS011;8829;47.932;7.810;2022-10-26T15:01:13;5.53;;;1.60;;
17422;SDS011;8829;47.932;7.810;2022-10-26T15:03:41;6.87;;;2.30;;
17422;SDS011;8829;47.932;7.810;2022-10-26T15:06:21;8.43;;;2.40;;
17422;SDS011;8829;47.932;7.810;2022-10-26T15:08:57;7.53;;;2.07;;
17422;SDS011;8829;47.932;7.810;2022-10-26T15:11:26;3.73;;;1.80;;
17422;SDS011;8829;47.932;7.810;2022-10-26T15:13:54;3.73;;;1.53;;
17422;SDS011;8829;47.932;7.810;2022-10-26T15:16:22;7.20;;;2.23;;
17422;SDS011;8829;47.932;7.810;2022-10-26T15:18:51;9.13;;;2.20;;
17422;SDS011;8829;47.932;7.810;2022-10-26T15:21:23;5.63;;;1.93;;
17422;SDS011;8829;47.932;7.810;2022-10-26T15:23:51;5.20;;;2.23;;
17422;SDS011;8829;47.932;7.810;2022-10-26T15:26:19;8.77;;;2.00;;
17422;SDS011;8829;47.932;7.810;2022-10-26T15:28:47;9.13;;;2.23;;
17422;SDS011;8829;47.932;7.810;2022-10-26T15:31:26;6.13;;;2.10;;
17422;SDS011;8829;47.932;7.810;2022-10-26T15:34:13;10.47;;;2.30;;
17422;SDS011;8829;47.932;7.810;2022-10-26T15:36:40;9.50;;;2.60;;
17422;SDS011;8829;47.932;7.810;2022-10-26T15:39:08;6.20;;;2.47;;
17422;SDS011;8829;47.932;7.810;2022-10-26T15:41:36;7.13;;;2.40;;
17422;SDS011;8829;47.932;7.810;2022-10-26T15:44:05;6.20;;;1.80;;